sensor_id;sensor_type;location;lat;lon;timestamp;temperature;humidity
9776;DHT22;4927;52.472;13.108;2023-05-20T00:00:55;11.00;99.90
9776;DHT22;4927;52.472;13.108;2023-05-20T00:01:57;10.90;99.90
9776;DHT22;4927;52.472;13.108;2023-05-20T00:02:59;10.90;99.90
9776;DHT22;4927;52.472;13.108;2023-05-20T00:04:00;10.90;99.90
9776;DHT22;4927;52.472;13.108;2023-05-20T00:05:02;10.90;99.90
9776;DHT22;4927;52.472;13.108;2023-05-20T00:06:04;10.90;99.90
9776;DHT22;4927;52.472;13.108;2023-05-20T00:07:06;10.90;99.90
9776;DHT22;4927;52.472;13.108;2023-05-20T00:08:07;10.90;99.90
9776;DHT22;4927;52.472;13.108;2023-05-20T00:09:09;10.80;99.90
9776;DHT22;4927;52.472;13.108;2023-05-20T00:10:11;10.80;99.90
9776;DHT22;4927;52.472;13.108;2023-05-20T00:11:12;10.80;99.90
9776;DHT22;4927;52.472;13.108;2023-05-20T00:12:14;10.80;99.90
9776;DHT22;4927;52.472;13.108;2023-05-20T00:13:16;10.80;99.90
9776;DHT22;4927;52.472;13.108;2023-05-20T00:14:19;10.80;99.90
9776;DHT22;4927;52.472;13.108;2023-05-20T00:15:20;10.80;99.90
9776;DHT22;4927;52.472;13.108;2023-05-20T00:16:23;10.80;99.90
9776;DHT22;4927;52.472;13.108;2023-05-20T00:17:25;10.70;99.90
9776;DHT22;4927;52.472;13.108;2023-05-20T00:18:27;10.70;99.90
9776;DHT22;4927;52.472;13.108;2023-05-20T00:19:29;10.70;99.90
9776;DHT22;4927;52.472;13.108;2023-05-20T00:20:31;10.70;99.90
9776;DHT22;4927;52.472;13.108;2023-05-20T00:21:32;10.70;99.90
9776;DHT22;4927;52.472;13.108;2023-05-20T00:22:34;10.60;99.90
9776;DHT22;4927;52.472;13.108;2023-05-20T00:23:35;10.60;99.90
9776;DHT22;4927;52.472;13.108;2023-05-20T00:24:37;10.60;99.90
9776;DHT22;4927;52.472;13.108;2023-05-20T00:25:39;10.60;99.90
9776;DHT22;4927;52.472;13.108;2023-05-20T00:26:40;10.60;99.90
9776;DHT22;4927;52.472;13.108;2023-05-20T00:27:43;10.60;99.90
9776;DHT22;4927;52.472;13.108;2023-05-20T00:28:44;10.60;99.90
9776;DHT22;4927;52.472;13.108;2023-05-20T00:29:46;10.60;99.90
9776;DHT22;4927;52.472;13.108;2023-05-20T00:30:48;10.60;99.90
9776;DHT22;4927;52.472;13.108;2023-05-20T00:31:50;10.60;99.90
9776;DHT22;4927;52.472;13.108;2023-05-20T00:32:51;10.60;99.90
9776;DHT22;4927;52.472;13.108;2023-05-20T00:33:53;10.50;99.90
9776;DHT22;4927;52.472;13.108;2023-05-20T00:34:56;10.50;99.90
9776;DHT22;4927;52.472;13.108;2023-05-20T00:35:58;10.50;99.90
9776;DHT22;4927;52.472;13.108;2023-05-20T00:37:00;10.50;99.90
9776;DHT22;4927;52.472;13.108;2023-05-20T00:38:02;10.40;99.90
9776;DHT22;4927;52.472;13.108;2023-05-20T00:39:04;10.50;99.90
9776;DHT22;4927;52.472;13.108;2023-05-20T00:40:07;10.40;99.90
9776;DHT22;4927;52.472;13.108;2023-05-20T00:41:09;10.40;99.90
9776;DHT22;4927;52.472;13.108;2023-05-20T00:42:10;10.40;99.90
9776;DHT22;4927;52.472;13.108;2023-05-20T00:43:12;10.40;99.90
9776;DHT22;4927;52.472;13.108;2023-05-20T00:44:14;10.40;99.90
9776;DHT22;4927;52.472;13.108;2023-05-20T00:45:16;10.40;99.90
9776;DHT22;4927;52.472;13.108;2023-05-20T00:46:18;10.40;99.90
9776;DHT22;4927;52.472;13.108;2023-05-20T00:47:22;10.40;99.90
9776;DHT22;4927;52.472;13.108;2023-05-20T00:48:21;10.30;99.90
9776;DHT22;4927;52.472;13.108;2023-05-20T00:49:23;10.30;99.90
9776;DHT22;4927;52.472;13.108;2023-05-20T00:50:25;10.30;99.90
9776;DHT22;4927;52.472;13.108;2023-05-20T00:51:27;10.30;99.90
9776;DHT22;4927;52.472;13.108;2023-05-20T00:52:30;10.30;99.90
9776;DHT22;4927;52.472;13.108;2023-05-20T00:53:30;10.20;99.90
9776;DHT22;4927;52.472;13.108;2023-05-20T00:54:32;10.20;99.90
9776;DHT22;4927;52.472;13.108;2023-05-20T00:55:34;10.20;99.90
9776;DHT22;4927;52.472;13.108;2023-05-20T00:56:35;10.20;99.90
9776;DHT22;4927;52.472;13.108;2023-05-20T00:57:38;10.20;99.90
9776;DHT22;4927;52.472;13.108;2023-05-20T00:58:39;10.20;99.90
9776;DHT22;4927;52.472;13.108;2023-05-20T00:59:41;10.20;99.90
9776;DHT22;4927;52.472;13.108;2023-05-20T01:00:43;10.20;99.90
9776;DHT22;4927;52.472;13.108;2023-05-20T01:01:44;10.20;99.90
9776;DHT22;4927;52.472;13.108;2023-05-20T01:02:47;10.10;99.90
9776;DHT22;4927;52.472;13.108;2023-05-20T01:03:49;10.10;99.90
9776;DHT22;4927;52.472;13.108;2023-05-20T01:04:50;10.10;99.90
9776;DHT22;4927;52.472;13.108;2023-05-20T01:05:52;10.10;99.90
9776;DHT22;4927;52.472;13.108;2023-05-20T01:06:53;10.10;99.90
9776;DHT22;4927;52.472;13.108;2023-05-20T01:07:55;10.10;99.90
9776;DHT22;4927;52.472;13.108;2023-05-20T01:08:57;10.10;99.90
9776;DHT22;4927;52.472;13.108;2023-05-20T01:09:58;10.00;99.90
9776;DHT22;4927;52.472;13.108;2023-05-20T01:11:05;10.00;99.90
9776;DHT22;4927;52.472;13.108;2023-05-20T01:13:41;10.00;99.90
9776;DHT22;4927;52.472;13.108;2023-05-20T01:14:49;10.00;99.90
9776;DHT22;4927;52.472;13.108;2023-05-20T01:15:50;10.00;99.90
9776;DHT22;4927;52.472;13.108;2023-05-20T01:16:52;10.00;99.90
9776;DHT22;4927;52.472;13.108;2023-05-20T01:17:54;9.90;99.90
9776;DHT22;4927;52.472;13.108;2023-05-20T01:18:55;9.90;99.90
9776;DHT22;4927;52.472;13.108;2023-05-20T01:19:58;9.90;99.90
9776;DHT22;4927;52.472;13.108;2023-05-20T01:21:01;9.90;99.90
9776;DHT22;4927;52.472;13.108;2023-05-20T01:22:02;9.90;99.90
9776;DHT22;4927;52.472;13.108;2023-05-20T01:23:04;10.00;99.90
9776;DHT22;4927;52.472;13.108;2023-05-20T01:24:06;9.90;99.90
9776;DHT22;4927;52.472;13.108;2023-05-20T01:25:08;9.90;99.90
9776;DHT22;4927;52.472;13.108;2023-05-20T01:26:09;9.90;99.90
9776;DHT22;4927;52.472;13.108;2023-05-20T01:27:14;9.90;99.90
9776;DHT22;4927;52.472;13.108;2023-05-20T01:28:15;9.90;99.90
9776;DHT22;4927;52.472;13.108;2023-05-20T01:29:17;9.90;99.90
9776;DHT22;4927;52.472;13.108;2023-05-20T01:30:19;9.90;99.90
9776;DHT22;4927;52.472;13.108;2023-05-20T01:31:22;9.90;99.90
9776;DHT22;4927;52.472;13.108;2023-05-20T01:32:23;9.90;99.90
9776;DHT22;4927;52.472;13.108;2023-05-20T01:33:24;9.90;99.90
9776;DHT22;4927;52.472;13.108;2023-05-20T01:34:25;9.90;99.90
9776;DHT22;4927;52.472;13.108;2023-05-20T01:35:27;9.90;99.90
9776;DHT22;4927;52.472;13.108;2023-05-20T01:36:29;9.90;99.90
9776;DHT22;4927;52.472;13.108;2023-05-20T01:37:30;9.90;99.90
9776;DHT22;4927;52.472;13.108;2023-05-20T01:38:32;9.90;99.90
9776;DHT22;4927;52.472;13.108;2023-05-20T01:39:35;9.90;99.90
9776;DHT22;4927;52.472;13.108;2023-05-20T01:40:35;9.90;99.90
9776;DHT22;4927;52.472;13.108;2023-05-20T01:41:37;9.90;99.90
9776;DHT22;4927;52.472;13.108;2023-05-20T01:42:39;9.90;99.90
9776;DHT22;4927;52.472;13.108;2023-05-20T01:43:40;9.90;99.90
9776;DHT22;4927;52.472;13.108;2023-05-20T01:44:42;9.90;99.90
9776;DHT22;4927;52.472;13.108;2023-05-20T01:45:43;9.90;99.90
9776;DHT22;4927;52.472;13.108;2023-05-20T01:46:48;9.90;99.90
9776;DHT22;4927;52.472;13.108;2023-05-20T01:47:49;9.90;99.90
9776;DHT22;4927;52.472;13.108;2023-05-20T01:48:51;9.90;99.90
9776;DHT22;4927;52.472;13.108;2023-05-20T01:49:53;9.80;99.90
9776;DHT22;4927;52.472;13.108;2023-05-20T01:50:55;9.80;99.90
9776;DHT22;4927;52.472;13.108;2023-05-20T01:51:56;9.80;99.90
9776;DHT22;4927;52.472;13.108;2023-05-20T01:52:58;9.80;99.90
9776;DHT22;4927;52.472;13.108;2023-05-20T01:54:01;9.80;99.90
9776;DHT22;4927;52.472;13.108;2023-05-20T01:55:04;9.80;99.90
9776;DHT22;4927;52.472;13.108;2023-05-20T01:56:07;9.80;99.90
9776;DHT22;4927;52.472;13.108;2023-05-20T01:57:09;9.80;99.90
9776;DHT22;4927;52.472;13.108;2023-05-20T01:58:11;9.80;99.90
9776;DHT22;4927;52.472;13.108;2023-05-20T01:59:13;9.70;99.90
9776;DHT22;4927;52.472;13.108;2023-05-20T02:00:15;9.80;99.90
9776;DHT22;4927;52.472;13.108;2023-05-20T02:01:17;9.80;99.90
9776;DHT22;4927;52.472;13.108;2023-05-20T02:02:18;9.70;99.90
9776;DHT22;4927;52.472;13.108;2023-05-20T02:03:20;9.70;99.90
9776;DHT22;4927;52.472;13.108;2023-05-20T02:04:22;9.70;99.90
9776;DHT22;4927;52.472;13.108;2023-05-20T02:05:24;9.70;99.90
9776;DHT22;4927;52.472;13.108;2023-05-20T02:06:25;9.70;99.90
9776;DHT22;4927;52.472;13.108;2023-05-20T02:07:28;9.70;99.90
9776;DHT22;4927;52.472;13.108;2023-05-20T02:08:30;9.70;99.90
9776;DHT22;4927;52.472;13.108;2023-05-20T02:09:31;9.70;99.90
9776;DHT22;4927;52.472;13.108;2023-05-20T02:10:33;9.70;99.90
9776;DHT22;4927;52.472;13.108;2023-05-20T02:11:35;9.70;99.90
9776;DHT22;4927;52.472;13.108;2023-05-20T02:12:36;9.70;99.90
9776;DHT22;4927;52.472;13.108;2023-05-20T02:13:38;9.70;99.90
9776;DHT22;4927;52.472;13.108;2023-05-20T02:14:40;9.70;99.90
9776;DHT22;4927;52.472;13.108;2023-05-20T02:15:42;9.70;99.90
9776;DHT22;4927;52.472;13.108;2023-05-20T02:16:44;9.70;99.90
9776;DHT22;4927;52.472;13.108;2023-05-20T02:17:45;9.70;99.90
9776;DHT22;4927;52.472;13.108;2023-05-20T02:18:46;9.70;99.90
9776;DHT22;4927;52.472;13.108;2023-05-20T02:19:48;9.70;99.90
9776;DHT22;4927;52.472;13.108;2023-05-20T02:20:50;9.70;99.90
9776;DHT22;4927;52.472;13.108;2023-05-20T02:21:51;9.60;99.90
9776;DHT22;4927;52.472;13.108;2023-05-20T02:22:53;9.60;99.90
9776;DHT22;4927;52.472;13.108;2023-05-20T02:23:55;9.60;99.90
9776;DHT22;4927;52.472;13.108;2023-05-20T02:24:57;9.60;99.90
9776;DHT22;4927;52.472;13.108;2023-05-20T02:26:06;9.60;99.90
9776;DHT22;4927;52.472;13.108;2023-05-20T02:27:09;9.60;99.90
9776;DHT22;4927;52.472;13.108;2023-05-20T02:28:11;9.60;99.90
9776;DHT22;4927;52.472;13.108;2023-05-20T02:29:12;9.70;99.90
9776;DHT22;4927;52.472;13.108;2023-05-20T02:30:22;9.60;99.90
9776;DHT22;4927;52.472;13.108;2023-05-20T02:31:24;9.60;99.90
9776;DHT22;4927;52.472;13.108;2023-05-20T02:32:25;9.60;99.90
9776;DHT22;4927;52.472;13.108;2023-05-20T02:33:27;9.60;99.90
9776;DHT22;4927;52.472;13.108;2023-05-20T02:34:29;9.60;99.90
9776;DHT22;4927;52.472;13.108;2023-05-20T02:35:30;9.60;99.90
9776;DHT22;4927;52.472;13.108;2023-05-20T02:36:32;9.60;99.90
9776;DHT22;4927;52.472;13.108;2023-05-20T02:37:34;9.50;99.90
9776;DHT22;4927;52.472;13.108;2023-05-20T02:38:35;9.60;99.90
9776;DHT22;4927;52.472;13.108;2023-05-20T02:39:37;9.60;99.90
9776;DHT22;4927;52.472;13.108;2023-05-20T02:40:39;9.60;99.90
9776;DHT22;4927;52.472;13.108;2023-05-20T02:41:40;9.60;99.90
9776;DHT22;4927;52.472;13.108;2023-05-20T02:42:42;9.60;99.90
9776;DHT22;4927;52.472;13.108;2023-05-20T02:43:43;9.60;99.90
9776;DHT22;4927;52.472;13.108;2023-05-20T02:44:45;9.50;99.90
9776;DHT22;4927;52.472;13.108;2023-05-20T02:45:47;9.50;99.90
9776;DHT22;4927;52.472;13.108;2023-05-20T02:46:48;9.50;99.90
9776;DHT22;4927;52.472;13.108;2023-05-20T02:47:50;9.50;99.90
9776;DHT22;4927;52.472;13.108;2023-05-20T02:48:52;9.50;99.90
9776;DHT22;4927;52.472;13.108;2023-05-20T02:49:53;9.50;99.90
9776;DHT22;4927;52.472;13.108;2023-05-20T02:50:55;9.50;99.90
9776;DHT22;4927;52.472;13.108;2023-05-20T02:51:57;9.50;99.90
9776;DHT22;4927;52.472;13.108;2023-05-20T02:52:58;9.50;99.90
9776;DHT22;4927;52.472;13.108;2023-05-20T02:54:00;9.50;99.90
9776;DHT22;4927;52.472;13.108;2023-05-20T02:55:02;9.50;99.90
9776;DHT22;4927;52.472;13.108;2023-05-20T02:56:05;9.50;99.90
9776;DHT22;4927;52.472;13.108;2023-05-20T02:57:07;9.50;99.90
9776;DHT22;4927;52.472;13.108;2023-05-20T02:58:09;9.50;99.90
9776;DHT22;4927;52.472;13.108;2023-05-20T02:59:10;9.50;99.90
9776;DHT22;4927;52.472;13.108;2023-05-20T03:00:12;9.50;99.90
9776;DHT22;4927;52.472;13.108;2023-05-20T03:01:14;9.50;99.90
9776;DHT22;4927;52.472;13.108;2023-05-20T03:02:16;9.50;99.90
9776;DHT22;4927;52.472;13.108;2023-05-20T03:03:17;9.50;99.90
9776;DHT22;4927;52.472;13.108;2023-05-20T03:04:19;9.50;99.90
9776;DHT22;4927;52.472;13.108;2023-05-20T03:05:21;9.50;99.90
9776;DHT22;4927;52.472;13.108;2023-05-20T03:06:23;9.50;99.90
9776;DHT22;4927;52.472;13.108;2023-05-20T03:07:25;9.50;99.90
9776;DHT22;4927;52.472;13.108;2023-05-20T03:08:26;9.50;99.90
9776;DHT22;4927;52.472;13.108;2023-05-20T03:09:28;9.50;99.90
9776;DHT22;4927;52.472;13.108;2023-05-20T03:10:30;9.50;99.90
9776;DHT22;4927;52.472;13.108;2023-05-20T03:11:32;9.50;99.90
9776;DHT22;4927;52.472;13.108;2023-05-20T03:12:35;9.50;99.90
9776;DHT22;4927;52.472;13.108;2023-05-20T03:13:36;9.50;99.90
9776;DHT22;4927;52.472;13.108;2023-05-20T03:14:38;9.50;99.90
9776;DHT22;4927;52.472;13.108;2023-05-20T03:15:40;9.60;99.90
9776;DHT22;4927;52.472;13.108;2023-05-20T03:16:42;9.60;99.90
9776;DHT22;4927;52.472;13.108;2023-05-20T03:17:44;9.60;99.90
9776;DHT22;4927;52.472;13.108;2023-05-20T03:18:45;9.60;99.90
9776;DHT22;4927;52.472;13.108;2023-05-20T03:19:47;9.60;99.90
9776;DHT22;4927;52.472;13.108;2023-05-20T03:20:49;9.60;99.90
9776;DHT22;4927;52.472;13.108;2023-05-20T03:21:50;9.60;99.90
9776;DHT22;4927;52.472;13.108;2023-05-20T03:22:52;9.60;99.90
9776;DHT22;4927;52.472;13.108;2023-05-20T03:23:54;9.60;99.90
9776;DHT22;4927;52.472;13.108;2023-05-20T03:24:55;9.60;99.90
9776;DHT22;4927;52.472;13.108;2023-05-20T03:25:57;9.70;99.90
9776;DHT22;4927;52.472;13.108;2023-05-20T03:26:58;9.70;99.90
9776;DHT22;4927;52.472;13.108;2023-05-20T03:28:00;9.70;99.90
9776;DHT22;4927;52.472;13.108;2023-05-20T03:29:03;9.70;99.90
9776;DHT22;4927;52.472;13.108;2023-05-20T03:30:05;9.70;99.90
9776;DHT22;4927;52.472;13.108;2023-05-20T03:31:08;9.80;99.90
9776;DHT22;4927;52.472;13.108;2023-05-20T03:32:09;9.80;99.90
9776;DHT22;4927;52.472;13.108;2023-05-20T03:33:11;9.80;99.90
9776;DHT22;4927;52.472;13.108;2023-05-20T03:34:13;9.80;99.90
9776;DHT22;4927;52.472;13.108;2023-05-20T03:35:15;9.90;99.90
9776;DHT22;4927;52.472;13.108;2023-05-20T03:36:17;9.80;99.90
9776;DHT22;4927;52.472;13.108;2023-05-20T03:37:18;9.90;99.90
9776;DHT22;4927;52.472;13.108;2023-05-20T03:38:20;9.90;99.90
9776;DHT22;4927;52.472;13.108;2023-05-20T03:39:22;9.90;99.90
9776;DHT22;4927;52.472;13.108;2023-05-20T03:40:23;9.90;99.90
9776;DHT22;4927;52.472;13.108;2023-05-20T03:41:25;10.00;99.90
9776;DHT22;4927;52.472;13.108;2023-05-20T03:42:27;9.90;99.90
9776;DHT22;4927;52.472;13.108;2023-05-20T03:43:29;10.00;99.90
9776;DHT22;4927;52.472;13.108;2023-05-20T03:44:31;10.00;99.90
9776;DHT22;4927;52.472;13.108;2023-05-20T03:45:32;10.00;99.90
9776;DHT22;4927;52.472;13.108;2023-05-20T03:46:35;10.10;99.90
9776;DHT22;4927;52.472;13.108;2023-05-20T03:47:37;10.00;99.90
9776;DHT22;4927;52.472;13.108;2023-05-20T03:48:38;10.10;99.90
9776;DHT22;4927;52.472;13.108;2023-05-20T03:49:40;10.10;99.90
9776;DHT22;4927;52.472;13.108;2023-05-20T03:50:42;10.10;99.90
9776;DHT22;4927;52.472;13.108;2023-05-20T03:51:43;10.10;99.90
9776;DHT22;4927;52.472;13.108;2023-05-20T03:52:46;10.10;99.90
9776;DHT22;4927;52.472;13.108;2023-05-20T03:53:47;10.10;99.90
9776;DHT22;4927;52.472;13.108;2023-05-20T03:54:49;10.10;99.90
9776;DHT22;4927;52.472;13.108;2023-05-20T03:55:51;10.10;99.90
9776;DHT22;4927;52.472;13.108;2023-05-20T03:56:52;10.10;99.90
9776;DHT22;4927;52.472;13.108;2023-05-20T03:57:54;10.20;99.90
9776;DHT22;4927;52.472;13.108;2023-05-20T03:58:56;10.20;99.90
9776;DHT22;4927;52.472;13.108;2023-05-20T03:59:58;10.20;99.90
9776;DHT22;4927;52.472;13.108;2023-05-20T04:01:00;10.20;99.90
9776;DHT22;4927;52.472;13.108;2023-05-20T04:02:02;10.20;99.90
9776;DHT22;4927;52.472;13.108;2023-05-20T04:03:04;10.20;99.90
9776;DHT22;4927;52.472;13.108;2023-05-20T04:04:06;10.20;99.90
9776;DHT22;4927;52.472;13.108;2023-05-20T04:05:08;10.30;99.90
9776;DHT22;4927;52.472;13.108;2023-05-20T04:06:12;10.30;99.90
9776;DHT22;4927;52.472;13.108;2023-05-20T04:07:12;10.30;99.90
9776;DHT22;4927;52.472;13.108;2023-05-20T04:08:14;10.30;99.90
9776;DHT22;4927;52.472;13.108;2023-05-20T04:09:16;10.30;99.90
9776;DHT22;4927;52.472;13.108;2023-05-20T04:10:18;10.30;99.90
9776;DHT22;4927;52.472;13.108;2023-05-20T04:11:19;10.30;99.90
9776;DHT22;4927;52.472;13.108;2023-05-20T04:12:21;10.40;99.90
9776;DHT22;4927;52.472;13.108;2023-05-20T04:13:23;10.40;99.90
9776;DHT22;4927;52.472;13.108;2023-05-20T04:14:25;10.40;99.90
9776;DHT22;4927;52.472;13.108;2023-05-20T04:15:26;10.40;99.90
9776;DHT22;4927;52.472;13.108;2023-05-20T04:16:29;10.40;99.90
9776;DHT22;4927;52.472;13.108;2023-05-20T04:17:30;10.40;99.90
9776;DHT22;4927;52.472;13.108;2023-05-20T04:18:33;10.40;99.90
9776;DHT22;4927;52.472;13.108;2023-05-20T04:19:35;10.40;99.90
9776;DHT22;4927;52.472;13.108;2023-05-20T04:20:36;10.40;99.90
9776;DHT22;4927;52.472;13.108;2023-05-20T04:21:38;10.40;99.90
9776;DHT22;4927;52.472;13.108;2023-05-20T04:22:40;10.40;99.90
9776;DHT22;4927;52.472;13.108;2023-05-20T04:23:41;10.40;99.90
9776;DHT22;4927;52.472;13.108;2023-05-20T04:24:44;10.40;99.90
9776;DHT22;4927;52.472;13.108;2023-05-20T04:25:45;10.40;99.90
9776;DHT22;4927;52.472;13.108;2023-05-20T04:26:47;10.40;99.90
9776;DHT22;4927;52.472;13.108;2023-05-20T04:27:49;10.40;99.90
9776;DHT22;4927;52.472;13.108;2023-05-20T04:28:50;10.40;99.90
9776;DHT22;4927;52.472;13.108;2023-05-20T04:29:52;10.40;99.90
9776;DHT22;4927;52.472;13.108;2023-05-20T04:30:57;10.40;99.90
9776;DHT22;4927;52.472;13.108;2023-05-20T04:31:58;10.40;99.90
9776;DHT22;4927;52.472;13.108;2023-05-20T04:33:00;10.50;99.90
9776;DHT22;4927;52.472;13.108;2023-05-20T04:34:01;10.50;99.90
9776;DHT22;4927;52.472;13.108;2023-05-20T04:35:04;10.50;99.90
9776;DHT22;4927;52.472;13.108;2023-05-20T04:36:09;10.50;99.90
9776;DHT22;4927;52.472;13.108;2023-05-20T04:37:11;10.50;99.90
9776;DHT22;4927;52.472;13.108;2023-05-20T04:38:12;10.50;99.90
9776;DHT22;4927;52.472;13.108;2023-05-20T04:39:14;10.50;99.90
9776;DHT22;4927;52.472;13.108;2023-05-20T04:40:16;10.50;99.90
9776;DHT22;4927;52.472;13.108;2023-05-20T04:41:17;10.50;99.90
9776;DHT22;4927;52.472;13.108;2023-05-20T04:42:19;10.60;99.90
9776;DHT22;4927;52.472;13.108;2023-05-20T04:43:20;10.60;99.90
9776;DHT22;4927;52.472;13.108;2023-05-20T04:44:22;10.50;99.90
9776;DHT22;4927;52.472;13.108;2023-05-20T04:45:24;10.60;99.90
9776;DHT22;4927;52.472;13.108;2023-05-20T04:46:26;10.60;99.90
9776;DHT22;4927;52.472;13.108;2023-05-20T04:47:27;10.60;99.90
9776;DHT22;4927;52.472;13.108;2023-05-20T04:48:29;10.60;99.90
9776;DHT22;4927;52.472;13.108;2023-05-20T04:49:30;10.60;99.90
9776;DHT22;4927;52.472;13.108;2023-05-20T04:50:32;10.60;99.90
9776;DHT22;4927;52.472;13.108;2023-05-20T04:51:34;10.60;99.90
9776;DHT22;4927;52.472;13.108;2023-05-20T04:52:36;10.60;99.90
9776;DHT22;4927;52.472;13.108;2023-05-20T04:53:38;10.60;99.90
9776;DHT22;4927;52.472;13.108;2023-05-20T04:54:39;10.60;99.90
9776;DHT22;4927;52.472;13.108;2023-05-20T04:55:41;10.60;99.90
9776;DHT22;4927;52.472;13.108;2023-05-20T04:56:43;10.60;99.90
9776;DHT22;4927;52.472;13.108;2023-05-20T04:57:44;10.60;99.90
9776;DHT22;4927;52.472;13.108;2023-05-20T04:58:46;10.60;99.90
9776;DHT22;4927;52.472;13.108;2023-05-20T04:59:48;10.60;99.90
9776;DHT22;4927;52.472;13.108;2023-05-20T05:00:50;10.60;99.90
9776;DHT22;4927;52.472;13.108;2023-05-20T05:01:52;10.60;99.90
9776;DHT22;4927;52.472;13.108;2023-05-20T05:02:53;10.60;99.90
9776;DHT22;4927;52.472;13.108;2023-05-20T05:03:56;10.70;99.90
9776;DHT22;4927;52.472;13.108;2023-05-20T05:04:57;10.70;99.90
9776;DHT22;4927;52.472;13.108;2023-05-20T05:05:59;10.70;99.90
9776;DHT22;4927;52.472;13.108;2023-05-20T05:07:01;10.70;99.90
9776;DHT22;4927;52.472;13.108;2023-05-20T05:08:04;10.70;99.90
9776;DHT22;4927;52.472;13.108;2023-05-20T05:09:06;10.70;99.90
9776;DHT22;4927;52.472;13.108;2023-05-20T05:10:08;10.70;99.90
9776;DHT22;4927;52.472;13.108;2023-05-20T05:11:11;10.80;99.90
9776;DHT22;4927;52.472;13.108;2023-05-20T05:12:13;10.70;99.90
9776;DHT22;4927;52.472;13.108;2023-05-20T05:13:14;10.70;99.90
9776;DHT22;4927;52.472;13.108;2023-05-20T05:14:16;10.80;99.90
9776;DHT22;4927;52.472;13.108;2023-05-20T05:15:17;10.80;99.90
9776;DHT22;4927;52.472;13.108;2023-05-20T05:16:19;10.80;99.90
9776;DHT22;4927;52.472;13.108;2023-05-20T05:17:21;10.80;99.90
9776;DHT22;4927;52.472;13.108;2023-05-20T05:18:22;10.90;99.90
9776;DHT22;4927;52.472;13.108;2023-05-20T05:19:25;10.90;99.90
9776;DHT22;4927;52.472;13.108;2023-05-20T05:20:27;10.90;99.90
9776;DHT22;4927;52.472;13.108;2023-05-20T05:21:28;10.90;99.90
9776;DHT22;4927;52.472;13.108;2023-05-20T05:22:30;10.90;99.90
9776;DHT22;4927;52.472;13.108;2023-05-20T05:23:32;11.00;99.90
9776;DHT22;4927;52.472;13.108;2023-05-20T05:24:33;11.00;99.90
9776;DHT22;4927;52.472;13.108;2023-05-20T05:25:36;11.00;99.90
9776;DHT22;4927;52.472;13.108;2023-05-20T05:26:37;11.00;99.90
9776;DHT22;4927;52.472;13.108;2023-05-20T05:27:39;10.90;99.90
9776;DHT22;4927;52.472;13.108;2023-05-20T05:28:41;11.00;99.90
9776;DHT22;4927;52.472;13.108;2023-05-20T05:29:42;11.00;99.90
9776;DHT22;4927;52.472;13.108;2023-05-20T05:30:44;11.00;99.90
9776;DHT22;4927;52.472;13.108;2023-05-20T05:31:46;11.00;99.90
9776;DHT22;4927;52.472;13.108;2023-05-20T05:32:47;11.00;99.90
9776;DHT22;4927;52.472;13.108;2023-05-20T05:33:49;11.10;99.90
9776;DHT22;4927;52.472;13.108;2023-05-20T05:34:50;11.00;99.90
9776;DHT22;4927;52.472;13.108;2023-05-20T05:35:52;11.10;99.90
9776;DHT22;4927;52.472;13.108;2023-05-20T05:36:54;11.10;99.90
9776;DHT22;4927;52.472;13.108;2023-05-20T05:37:56;11.20;99.90
9776;DHT22;4927;52.472;13.108;2023-05-20T05:38:58;11.20;99.90
9776;DHT22;4927;52.472;13.108;2023-05-20T05:39:59;11.20;99.90
9776;DHT22;4927;52.472;13.108;2023-05-20T05:41:01;11.20;99.90
9776;DHT22;4927;52.472;13.108;2023-05-20T05:42:03;11.20;99.90
9776;DHT22;4927;52.472;13.108;2023-05-20T05:43:06;11.30;99.90
9776;DHT22;4927;52.472;13.108;2023-05-20T05:44:07;11.20;99.90
9776;DHT22;4927;52.472;13.108;2023-05-20T05:45:10;11.30;99.90
9776;DHT22;4927;52.472;13.108;2023-05-20T05:46:11;11.30;99.90
9776;DHT22;4927;52.472;13.108;2023-05-20T05:47:13;11.30;99.90
9776;DHT22;4927;52.472;13.108;2023-05-20T05:48:15;11.30;99.90
9776;DHT22;4927;52.472;13.108;2023-05-20T05:49:16;11.30;99.90
9776;DHT22;4927;52.472;13.108;2023-05-20T05:50:18;11.30;99.90
9776;DHT22;4927;52.472;13.108;2023-05-20T05:51:19;11.30;99.90
9776;DHT22;4927;52.472;13.108;2023-05-20T05:52:21;11.30;99.90
9776;DHT22;4927;52.472;13.108;2023-05-20T05:53:23;11.30;99.90
9776;DHT22;4927;52.472;13.108;2023-05-20T05:54:25;11.40;99.90
9776;DHT22;4927;52.472;13.108;2023-05-20T05:55:28;11.40;99.90
9776;DHT22;4927;52.472;13.108;2023-05-20T05:56:29;11.40;99.90
9776;DHT22;4927;52.472;13.108;2023-05-20T05:57:31;11.40;99.90
9776;DHT22;4927;52.472;13.108;2023-05-20T05:58:33;11.40;99.90
9776;DHT22;4927;52.472;13.108;2023-05-20T05:59:34;11.40;99.90
9776;DHT22;4927;52.472;13.108;2023-05-20T06:00:36;11.50;99.90
9776;DHT22;4927;52.472;13.108;2023-05-20T06:01:37;11.40;99.90
9776;DHT22;4927;52.472;13.108;2023-05-20T06:02:39;11.50;99.90
9776;DHT22;4927;52.472;13.108;2023-05-20T06:03:41;11.40;99.90
9776;DHT22;4927;52.472;13.108;2023-05-20T06:04:43;11.50;99.90
9776;DHT22;4927;52.472;13.108;2023-05-20T06:05:45;11.50;99.90
9776;DHT22;4927;52.472;13.108;2023-05-20T06:06:47;11.50;99.90
9776;DHT22;4927;52.472;13.108;2023-05-20T06:07:48;11.50;99.90
9776;DHT22;4927;52.472;13.108;2023-05-20T06:08:50;11.60;99.90
9776;DHT22;4927;52.472;13.108;2023-05-20T06:09:51;11.60;99.90
9776;DHT22;4927;52.472;13.108;2023-05-20T06:10:53;11.60;99.90
9776;DHT22;4927;52.472;13.108;2023-05-20T06:11:55;11.60;99.90
9776;DHT22;4927;52.472;13.108;2023-05-20T06:12:56;11.60;99.90
9776;DHT22;4927;52.472;13.108;2023-05-20T06:13:58;11.60;99.90
9776;DHT22;4927;52.472;13.108;2023-05-20T06:15:00;11.60;99.90
9776;DHT22;4927;52.472;13.108;2023-05-20T06:16:01;11.60;99.90
9776;DHT22;4927;52.472;13.108;2023-05-20T06:17:03;11.60;99.90
9776;DHT22;4927;52.472;13.108;2023-05-20T06:18:05;11.60;99.90
9776;DHT22;4927;52.472;13.108;2023-05-20T06:19:07;11.70;99.90
9776;DHT22;4927;52.472;13.108;2023-05-20T06:20:10;11.70;99.90
9776;DHT22;4927;52.472;13.108;2023-05-20T06:21:12;11.70;99.90
9776;DHT22;4927;52.472;13.108;2023-05-20T06:22:14;11.70;99.90
9776;DHT22;4927;52.472;13.108;2023-05-20T06:23:15;11.70;99.90
9776;DHT22;4927;52.472;13.108;2023-05-20T06:24:17;11.80;99.90
9776;DHT22;4927;52.472;13.108;2023-05-20T06:25:18;11.80;99.90
9776;DHT22;4927;52.472;13.108;2023-05-20T06:26:20;11.80;99.90
9776;DHT22;4927;52.472;13.108;2023-05-20T06:27:22;11.80;99.90
9776;DHT22;4927;52.472;13.108;2023-05-20T06:28:23;11.80;99.90
9776;DHT22;4927;52.472;13.108;2023-05-20T06:29:25;11.90;99.90
9776;DHT22;4927;52.472;13.108;2023-05-20T06:30:27;11.80;99.90
9776;DHT22;4927;52.472;13.108;2023-05-20T06:31:29;11.90;99.90
9776;DHT22;4927;52.472;13.108;2023-05-20T06:32:31;11.90;99.90
9776;DHT22;4927;52.472;13.108;2023-05-20T06:33:32;11.90;99.90
9776;DHT22;4927;52.472;13.108;2023-05-20T06:34:34;12.00;99.90
9776;DHT22;4927;52.472;13.108;2023-05-20T06:35:36;12.00;99.90
9776;DHT22;4927;52.472;13.108;2023-05-20T06:36:37;12.00;99.90
9776;DHT22;4927;52.472;13.108;2023-05-20T06:37:39;12.10;99.90
9776;DHT22;4927;52.472;13.108;2023-05-20T06:38:40;12.10;99.90
9776;DHT22;4927;52.472;13.108;2023-05-20T06:39:42;12.10;99.90
9776;DHT22;4927;52.472;13.108;2023-05-20T06:40:44;12.10;99.90
9776;DHT22;4927;52.472;13.108;2023-05-20T06:41:45;12.10;99.90